Maersk Bali — 9V7499 — position and weather

sailwx.info

Track history (hours):
 
Tides and Currents Weather Stations Pressure Air Temp Water Temp Dewpoint Dewpoint Depression Visibility Wind Speed Wind Dir Waves Ship Positions

Maersk Bali

Last reported at 2014-Oct-23 22:22 UTC. Time now 2014-Oct-31 23:06 UTC.
Position N 35°37' W 015°35'.
Warning: this ship's position is 8 days out of date.

Length 223 m; draft 11.5 m.

Type: Cargo ship. MMSI: 563102000.

Date/timePositionNaut miles runAvg speedWind from/ knotsBaromVisibWave heightAir tempDewpointWater temp
2014-Oct-23 22:22N 35°37' W 015°35'7210.4
2014-Oct-23 15:27N 35°44' W 014°07'2010.4
2014-Oct-23 13:33N 35°45' W 013°43'1110.5
2014-Oct-23 12:33N 35°46' W 013°30'1110.5
2014-Oct-23 11:32N 35°47' W 013°17'1010.3
2014-Oct-23 10:33N 35°47' W 013°04'1110.7
2014-Oct-23 09:33N 35°48' W 012°51'1212.4
2014-Oct-23 08:33N 35°49' W 012°36'1010.4
2014-Oct-23 07:32N 35°49' W 012°23'1010.6
2014-Oct-23 06:33N 35°50' W 012°10'1210.8
2014-Oct-23 05:29N 35°51' W 011°56'19910.9
2014-Oct-22 11:10N 35°58' W 007°50'711.0
2014-Oct-22 10:33N 35°58' W 007°42'3711.4
2014-Oct-22 07:20N 35°58' W 006°56'7210.7
2014-Oct-22 00:33N 36°00' W 005°27'9 8.9
2014-Oct-21 23:33N 36°09' W 005°25'1 0.8
2014-Oct-21 22:31N 36°08' W 005°26'0 0.0
2014-Oct-21 20:22N 36°08' W 005°26'0 0.0
2014-Oct-21 18:19N 36°08' W 005°26'0 0.0
2014-Oct-21 17:31N 36°08' W 005°26'0 0.0
2014-Oct-21 16:28N 36°08' W 005°26'0 0.0
2014-Oct-21 15:31N 36°08' W 005°26'0 0.0
2014-Oct-21 14:25N 36°08' W 005°26'0 0.0
2014-Oct-21 13:31N 36°08' W 005°26'0 0.0
2014-Oct-21 12:28N 36°08' W 005°26'0 0.0
2014-Oct-21 11:31N 36°08' W 005°26'0 0.0
2014-Oct-21 10:31N 36°08' W 005°26'0 0.0
2014-Oct-21 09:31N 36°08' W 005°26'0 0.0
2014-Oct-21 08:25N 36°08' W 005°26'0 0.0
2014-Oct-21 07:25N 36°08' W 005°26'0 0.0
2014-Oct-21 06:31N 36°08' W 005°26'0 0.0
2014-Oct-21 05:22N 36°08' W 005°26'0 0.0
2014-Oct-21 04:31N 36°08' W 005°26'0 0.0
2014-Oct-21 03:31N 36°08' W 005°26'0 0.0
2014-Oct-21 02:31N 36°08' W 005°26'0 0.0
2014-Oct-21 01:28N 36°08' W 005°26'0 0.0
2014-Oct-21 00:33N 36°08' W 005°26'3 3.0
2014-Oct-20 23:30N 36°07' W 005°23'3 3.2
2014-Oct-20 22:28N 36°05' W 005°20'2 2.1
2014-Oct-20 21:33N 36°05' W 005°17'2 1.8
2014-Oct-20 20:34N 36°06' W 005°15'21710.8
2014-Oct-20 00:32N 36°46' W 000°50'1111.3
2014-Oct-19 23:32N 36°49' W 000°37'1111.5
2014-Oct-19 22:33N 36°53' W 000°23'1111.4
2014-Oct-19 21:33N 36°56' W 000°10'1211.5
2014-Oct-19 20:33N 36°60' E 000°04'1111.3
2014-Oct-19 19:33N 37°03' E 000°18'1111.2
2014-Oct-19 18:32N 37°07' E 000°31'1111.3
2014-Oct-19 17:33N 37°10' E 000°45'1111.5
2014-Oct-19 16:33N 37°13' E 000°58'21511.3
2014-Oct-18 21:33N 37°39' E 005°27'6011.5
2014-Oct-18 16:22N 37°38' E 006°42'1011.5
2014-Oct-18 15:28N 37°38' E 006°55'1210.7
2014-Oct-18 14:20N 37°38' E 007°11'911.2
2014-Oct-18 13:32N 37°38' E 007°22'1111.1
2014-Oct-18 12:33N 37°38' E 007°36'2511.1
2014-Oct-18 10:20N 37°38' E 008°07'1411.5
2014-Oct-18 09:06N 37°37' E 008°25'611.2
2014-Oct-18 08:34N 37°37' E 008°33'1110.9
2014-Oct-18 07:33N 37°37' E 008°46'1110.7
2014-Oct-18 06:33N 37°37' E 009°00'1010.6
2014-Oct-18 05:33N 37°37' E 009°13'1110.8
2014-Oct-18 04:33N 37°37' E 009°27'1010.3
2014-Oct-18 03:33N 37°38' E 009°40'1010.3
2014-Oct-18 02:33N 37°39' E 009°53'1010.3
2014-Oct-18 01:33N 37°39' E 010°06'1010.1
2014-Oct-18 00:33N 37°38' E 010°19'1110.6
2014-Oct-17 23:33N 37°35' E 010°31'1110.9
2014-Oct-17 22:33N 37°32' E 010°45'1111.2
2014-Oct-17 21:34N 37°30' E 010°58'2311.3
2014-Oct-17 19:33N 37°21' E 011°25'2211.3
2014-Oct-17 17:34N 37°10' E 011°49'1111.2
2014-Oct-17 16:34N 37°04' E 012°01'1111.0
2014-Oct-17 15:33N 36°59' E 012°13'1111.3
2014-Oct-17 14:34N 36°56' E 012°27'1111.2
2014-Oct-17 13:33N 36°52' E 012°40'1111.4
2014-Oct-17 12:34N 36°48' E 012°53'1211.5
2014-Oct-17 11:34N 36°44' E 013°07'1211.5
2014-Oct-17 10:33N 36°40' E 013°20'1111.3
2014-Oct-17 09:34N 36°36' E 013°33'1111.2
2014-Oct-17 08:34N 36°32' E 013°47'1111.4
2014-Oct-17 07:33N 36°28' E 013°60'1313.1
2014-Oct-17 06:33N 36°23' E 014°15'1111.4
2014-Oct-17 05:33N 36°20' E 014°28'1111.3
2014-Oct-17 04:33N 36°18' E 014°42'1111.3
2014-Oct-17 03:33N 36°18' E 014°56'1111.4
2014-Oct-17 02:33N 36°17' E 015°10'1211.4
2014-Oct-17 01:29N 36°16' E 015°26'1111.4
2014-Oct-17 00:33N 36°16' E 015°39'1111.5
2014-Oct-16 23:33N 36°16' E 015°53'10111.2
2014-Oct-16 14:33N 36°11' E 017°58'13711.1
2014-Oct-16 02:14N 36°05' E 020°48'811.0
2014-Oct-16 01:33N 36°05' E 020°57'2211.1
2014-Oct-15 23:31N 36°04' E 021°25'1111.3
2014-Oct-15 22:33N 36°03' E 021°38'1111.2
2014-Oct-15 21:33N 36°03' E 021°52'7210.3
2014-Oct-15 14:32N 36°14' E 023°20'1211.8
2014-Oct-15 13:33N 36°24' E 023°26'1211.5
2014-Oct-15 12:33N 36°35' E 023°32'1211.8
2014-Oct-15 11:33N 36°45' E 023°39'1412.4
2014-Oct-15 10:27N 36°57' E 023°47'1612.2
2014-Oct-15 09:07N 37°12' E 023°56'711.9
2014-Oct-15 08:33N 37°18' E 023°59'1111.5
2014-Oct-15 07:33N 37°29' E 024°06'2711.6
2014-Oct-15 05:16N 37°49' E 024°27'811.0
2014-Oct-15 04:33N 37°54' E 024°34'4611.5
2014-Oct-15 00:33N 38°31' E 025°10'1411.7
2014-Oct-14 23:20N 38°41' E 025°23'  
Track history (hours):
 
Tides and Currents Weather Stations Pressure Air Temp Water Temp Dewpoint Dewpoint Depression Visibility Wind Speed Wind Dir Waves Ship Positions

Maersk Bali

Last reported at 2014-Oct-23 22:22 UTC. Time now 2014-Oct-31 23:06 UTC.
Position N 35°37' W 015°35'.
Warning: this ship's position is 8 days out of date.

Length 223 m; draft 11.5 m.

Type: Cargo ship. MMSI: 563102000.

Date/timePositionNaut miles runAvg speedWind from/ knotsBaromVisibWave heightAir tempDewpointWater temp
2014-Oct-23 22:22N 35°37' W 015°35'7210.4
2014-Oct-23 15:27N 35°44' W 014°07'2010.4
2014-Oct-23 13:33N 35°45' W 013°43'1110.5
2014-Oct-23 12:33N 35°46' W 013°30'1110.5
2014-Oct-23 11:32N 35°47' W 013°17'1010.3
2014-Oct-23 10:33N 35°47' W 013°04'1110.7
2014-Oct-23 09:33N 35°48' W 012°51'1212.4
2014-Oct-23 08:33N 35°49' W 012°36'1010.4
2014-Oct-23 07:32N 35°49' W 012°23'1010.6
2014-Oct-23 06:33N 35°50' W 012°10'1210.8
2014-Oct-23 05:29N 35°51' W 011°56'19910.9
2014-Oct-22 11:10N 35°58' W 007°50'711.0
2014-Oct-22 10:33N 35°58' W 007°42'3711.4
2014-Oct-22 07:20N 35°58' W 006°56'7210.7
2014-Oct-22 00:33N 36°00' W 005°27'9 8.9
2014-Oct-21 23:33N 36°09' W 005°25'1 0.8
2014-Oct-21 22:31N 36°08' W 005°26'0 0.0
2014-Oct-21 20:22N 36°08' W 005°26'0 0.0
2014-Oct-21 18:19N 36°08' W 005°26'0 0.0
2014-Oct-21 17:31N 36°08' W 005°26'0 0.0
2014-Oct-21 16:28N 36°08' W 005°26'0 0.0
2014-Oct-21 15:31N 36°08' W 005°26'0 0.0
2014-Oct-21 14:25N 36°08' W 005°26'0 0.0
2014-Oct-21 13:31N 36°08' W 005°26'0 0.0
2014-Oct-21 12:28N 36°08' W 005°26'0 0.0
2014-Oct-21 11:31N 36°08' W 005°26'0 0.0
2014-Oct-21 10:31N 36°08' W 005°26'0 0.0
2014-Oct-21 09:31N 36°08' W 005°26'0 0.0
2014-Oct-21 08:25N 36°08' W 005°26'0 0.0
2014-Oct-21 07:25N 36°08' W 005°26'0 0.0
2014-Oct-21 06:31N 36°08' W 005°26'0 0.0
2014-Oct-21 05:22N 36°08' W 005°26'0 0.0
2014-Oct-21 04:31N 36°08' W 005°26'0 0.0
2014-Oct-21 03:31N 36°08' W 005°26'0 0.0
2014-Oct-21 02:31N 36°08' W 005°26'0 0.0
2014-Oct-21 01:28N 36°08' W 005°26'0 0.0
2014-Oct-21 00:33N 36°08' W 005°26'3 3.0
2014-Oct-20 23:30N 36°07' W 005°23'3 3.2
2014-Oct-20 22:28N 36°05' W 005°20'2 2.1
2014-Oct-20 21:33N 36°05' W 005°17'2 1.8
2014-Oct-20 20:34N 36°06' W 005°15'21710.8
2014-Oct-20 00:32N 36°46' W 000°50'1111.3
2014-Oct-19 23:32N 36°49' W 000°37'1111.5
2014-Oct-19 22:33N 36°53' W 000°23'1111.4
2014-Oct-19 21:33N 36°56' W 000°10'1211.5
2014-Oct-19 20:33N 36°60' E 000°04'1111.3
2014-Oct-19 19:33N 37°03' E 000°18'1111.2
2014-Oct-19 18:32N 37°07' E 000°31'1111.3
2014-Oct-19 17:33N 37°10' E 000°45'1111.5
2014-Oct-19 16:33N 37°13' E 000°58'21511.3
2014-Oct-18 21:33N 37°39' E 005°27'6011.5
2014-Oct-18 16:22N 37°38' E 006°42'1011.5
2014-Oct-18 15:28N 37°38' E 006°55'1210.7
2014-Oct-18 14:20N 37°38' E 007°11'911.2
2014-Oct-18 13:32N 37°38' E 007°22'1111.1
2014-Oct-18 12:33N 37°38' E 007°36'2511.1
2014-Oct-18 10:20N 37°38' E 008°07'1411.5
2014-Oct-18 09:06N 37°37' E 008°25'611.2
2014-Oct-18 08:34N 37°37' E 008°33'1110.9
2014-Oct-18 07:33N 37°37' E 008°46'1110.7
2014-Oct-18 06:33N 37°37' E 009°00'1010.6
2014-Oct-18 05:33N 37°37' E 009°13'1110.8
2014-Oct-18 04:33N 37°37' E 009°27'1010.3
2014-Oct-18 03:33N 37°38' E 009°40'1010.3
2014-Oct-18 02:33N 37°39' E 009°53'1010.3
2014-Oct-18 01:33N 37°39' E 010°06'1010.1
2014-Oct-18 00:33N 37°38' E 010°19'1110.6
2014-Oct-17 23:33N 37°35' E 010°31'1110.9
2014-Oct-17 22:33N 37°32' E 010°45'1111.2
2014-Oct-17 21:34N 37°30' E 010°58'2311.3
2014-Oct-17 19:33N 37°21' E 011°25'2211.3
2014-Oct-17 17:34N 37°10' E 011°49'1111.2
2014-Oct-17 16:34N 37°04' E 012°01'1111.0
2014-Oct-17 15:33N 36°59' E 012°13'1111.3
2014-Oct-17 14:34N 36°56' E 012°27'1111.2
2014-Oct-17 13:33N 36°52' E 012°40'1111.4
2014-Oct-17 12:34N 36°48' E 012°53'1211.5
2014-Oct-17 11:34N 36°44' E 013°07'1211.5
2014-Oct-17 10:33N 36°40' E 013°20'1111.3
2014-Oct-17 09:34N 36°36' E 013°33'1111.2
2014-Oct-17 08:34N 36°32' E 013°47'1111.4
2014-Oct-17 07:33N 36°28' E 013°60'1313.1
2014-Oct-17 06:33N 36°23' E 014°15'1111.4
2014-Oct-17 05:33N 36°20' E 014°28'1111.3
2014-Oct-17 04:33N 36°18' E 014°42'1111.3
2014-Oct-17 03:33N 36°18' E 014°56'1111.4
2014-Oct-17 02:33N 36°17' E 015°10'1211.4
2014-Oct-17 01:29N 36°16' E 015°26'1111.4
2014-Oct-17 00:33N 36°16' E 015°39'1111.5
2014-Oct-16 23:33N 36°16' E 015°53'10111.2
2014-Oct-16 14:33N 36°11' E 017°58'13711.1
2014-Oct-16 02:14N 36°05' E 020°48'811.0
2014-Oct-16 01:33N 36°05' E 020°57'2211.1
2014-Oct-15 23:31N 36°04' E 021°25'1111.3
2014-Oct-15 22:33N 36°03' E 021°38'1111.2
2014-Oct-15 21:33N 36°03' E 021°52'7210.3
2014-Oct-15 14:32N 36°14' E 023°20'1211.8
2014-Oct-15 13:33N 36°24' E 023°26'1211.5
2014-Oct-15 12:33N 36°35' E 023°32'1211.8
2014-Oct-15 11:33N 36°45' E 023°39'1412.4
2014-Oct-15 10:27N 36°57' E 023°47'1612.2
2014-Oct-15 09:07N 37°12' E 023°56'711.9
2014-Oct-15 08:33N 37°18' E 023°59'1111.5
2014-Oct-15 07:33N 37°29' E 024°06'2711.6
2014-Oct-15 05:16N 37°49' E 024°27'811.0
2014-Oct-15 04:33N 37°54' E 024°34'4611.5
2014-Oct-15 00:33N 38°31' E 025°10'1411.7
2014-Oct-14 23:20N 38°41' E 025°23'  

Dump ship's entire track history